Time;durP1;ratioP1;P1;durP2;ratioP2;P2;SDS_P1;SDS_P2;PMS_P1;PMS_P2;Temp;Humidity;BMP_temperature;BMP_pressure;BME280_temperature;BME280_humidity;BME280_pressure;Samples;Min_cycle;Max_cycle;Signal;HPM_P1;HPM_P2
2022/05/15 00:02:27;;;;;;;23.48;5.60;;;10.30;99.90;;;;;;5100091;28;20073;-81
2022/05/15 00:04:53;;;;;;;17.60;4.82;;;10.30;99.90;;;;;;5086366;28;20545;-79
2022/05/15 00:07:18;;;;;;;20.67;4.10;;;10.40;99.90;;;;;;5100754;28;20028;-79
2022/05/15 00:09:44;;;;;;;31.92;6.20;;;10.30;99.90;;;;;;5099273;28;20065;-79
2022/05/15 00:12:10;;;;;;;22.23;4.93;;;10.30;99.90;;;;;;5100118;28;20058;-79
2022/05/15 00:14:35;;;;;;;18.90;5.43;;;10.30;99.90;;;;;;5099800;28;20078;-80
2022/05/15 00:17:01;;;;;;;20.25;4.80;;;10.20;99.90;;;;;;5082127;28;20092;-79
2022/05/15 00:19:27;;;;;;;20.85;5.47;;;10.20;99.90;;;;;;5098361;28;20414;-79
2022/05/15 00:21:53;;;;;;;20.73;4.85;;;10.20;99.90;;;;;;5081745;28;20039;-79
2022/05/15 00:24:18;;;;;;;27.05;5.50;;;10.10;99.90;;;;;;5099611;28;20138;-79
2022/05/15 00:26:44;;;;;;;17.88;4.65;;;10.10;99.90;;;;;;5098498;28;20036;-80
2022/05/15 00:29:10;;;;;;;17.65;4.28;;;10.10;99.90;;;;;;5097627;28;20039;-81
2022/05/15 00:31:35;;;;;;;17.52;5.20;;;10.00;99.90;;;;;;5096220;28;20058;-80
2022/05/15 00:34:04;;;;;;;21.45;5.22;;;10.00;99.90;;;;;;5096972;28;20040;-80
2022/05/15 00:36:30;;;;;;;19.27;4.90;;;10.00;99.90;;;;;;5079692;28;20118;-80
2022/05/15 00:38:58;;;;;;;21.75;5.25;;;9.90;99.90;;;;;;5096541;28;20111;-80
2022/05/15 00:41:24;;;;;;;20.27;4.90;;;9.90;99.90;;;;;;5096645;28;20043;-80
2022/05/15 00:43:56;;;;;;;20.17;7.00;;;9.90;99.90;;;;;;5096515;28;20498;-80
2022/05/15 00:46:30;;;;;;;17.35;5.93;;;9.80;99.90;;;;;;5079358;28;20081;-80
2022/05/15 00:48:59;;;;;;;15.07;3.92;;;9.80;99.90;;;;;;5095830;28;20035;-80
2022/05/15 00:51:31;;;;;;;18.85;4.32;;;9.70;99.90;;;;;;5095862;28;20063;-80
2022/05/15 00:54:29;;;;;;;21.17;4.43;;;9.70;99.90;;;;;;5097127;28;20142;-80
2022/05/15 00:57:21;;;;;;;21.17;5.35;;;9.60;99.90;;;;;;5074347;28;20128;-80
2022/05/15 01:00:00;;;;;;;15.30;4.63;;;9.70;99.90;;;;;;5079747;28;20055;-80
2022/05/15 01:02:30;;;;;;;16.15;5.47;;;9.60;99.90;;;;;;5096466;28;20046;-79
2022/05/15 01:04:56;;;;;;;19.08;4.13;;;9.60;99.90;;;;;;5097161;28;20073;-79
2022/05/15 01:07:21;;;;;;;27.10;5.70;;;9.50;99.90;;;;;;5097115;28;20046;-80
2022/05/15 01:09:48;;;;;;;18.73;5.90;;;9.50;99.90;;;;;;5079302;28;20031;-80
2022/05/15 01:12:14;;;;;;;27.02;5.53;;;9.50;99.90;;;;;;5096918;28;20056;-79
2022/05/15 01:14:42;;;;;;;19.05;4.55;;;9.50;99.90;;;;;;5117791;28;20050;-80
2022/05/15 01:17:08;;;;;;;21.67;4.57;;;9.40;99.90;;;;;;5114668;28;20606;-81
2022/05/15 01:19:37;;;;;;;14.65;4.50;;;9.40;99.90;;;;;;5098645;28;20126;-81
2022/05/15 01:22:05;;;;;;;17.73;5.43;;;9.40;99.90;;;;;;5094937;28;20375;-80
2022/05/15 01:24:31;;;;;;;18.02;4.65;;;9.30;99.90;;;;;;5094414;28;20032;-80
2022/05/15 01:27:01;;;;;;;15.75;3.70;;;9.30;99.90;;;;;;5094674;28;20039;-80
2022/05/15 01:29:30;;;;;;;18.48;4.78;;;9.30;99.90;;;;;;5094036;28;20040;-82
2022/05/15 01:31:56;;;;;;;15.00;4.88;;;9.30;99.90;;;;;;5112080;28;20050;-79
2022/05/15 01:34:22;;;;;;;16.95;5.30;;;9.40;99.90;;;;;;5094178;28;20164;-80
2022/05/15 01:36:48;;;;;;;15.15;3.97;;;9.40;99.90;;;;;;5094614;28;20126;-80
2022/05/15 01:39:14;;;;;;;18.42;5.18;;;9.40;99.90;;;;;;5077520;28;20038;-79
2022/05/15 01:41:39;;;;;;;16.95;5.20;;;9.40;99.90;;;;;;5094124;28;20042;-80
2022/05/15 01:44:05;;;;;;;23.75;5.32;;;9.40;99.90;;;;;;5094003;28;20069;-80
2022/05/15 01:46:31;;;;;;;19.10;4.82;;;9.30;99.90;;;;;;5094034;28;20032;-79
2022/05/15 01:48:57;;;;;;;25.05;4.25;;;9.30;99.90;;;;;;5094162;28;20032;-80
2022/05/15 01:51:23;;;;;;;15.30;5.15;;;9.30;99.90;;;;;;5093304;28;20039;-80
2022/05/15 01:53:48;;;;;;;23.60;6.30;;;9.30;99.90;;;;;;5077144;28;20047;-79
2022/05/15 01:56:14;;;;;;;14.55;6.25;;;9.20;99.90;;;;;;5094320;28;20375;-80
2022/05/15 01:58:40;;;;;;;20.45;4.97;;;9.20;99.90;;;;;;5093930;28;20039;-80
2022/05/15 02:01:07;;;;;;;20.85;4.45;;;9.20;99.90;;;;;;5093844;28;20100;-80
2022/05/15 02:03:34;;;;;;;19.10;5.70;;;9.20;99.90;;;;;;5094008;28;20043;-80
2022/05/15 02:06:00;;;;;;;21.92;7.45;;;9.20;99.90;;;;;;5093815;28;20036;-80
2022/05/15 02:08:27;;;;;;;26.75;6.85;;;9.20;99.90;;;;;;5077178;28;20035;-79
2022/05/15 02:10:53;;;;;;;19.30;4.50;;;9.10;99.90;;;;;;5093825;28;20043;-80
2022/05/15 02:13:18;;;;;;;20.88;5.13;;;9.10;99.90;;;;;;5093941;28;20043;-80
2022/05/15 02:15:44;;;;;;;15.55;4.38;;;9.10;99.90;;;;;;5094335;28;20040;-80
2022/05/15 02:18:09;;;;;;;20.45;4.70;;;9.00;99.90;;;;;;5094376;28;20047;-79
2022/05/15 02:20:36;;;;;;;19.10;4.85;;;9.00;99.90;;;;;;5077339;28;20402;-79
2022/05/15 02:23:01;;;;;;;14.45;4.63;;;9.00;99.90;;;;;;5093944;28;20497;-80
2022/05/15 02:25:27;;;;;;;17.40;4.53;;;8.90;99.90;;;;;;5094048;28;20123;-80
2022/05/15 02:27:54;;;;;;;20.35;5.57;;;8.90;99.90;;;;;;5094009;28;20086;-80
2022/05/15 02:30:20;;;;;;;19.45;4.68;;;9.00;99.90;;;;;;5093815;28;20085;-80
2022/05/15 02:32:46;;;;;;;19.50;5.45;;;9.00;99.90;;;;;;5093868;28;20044;-80
2022/05/15 02:35:12;;;;;;;24.58;5.03;;;9.00;99.90;;;;;;5077533;28;20130;-80
2022/05/15 02:37:39;;;;;;;19.13;5.15;;;9.00;99.90;;;;;;5094110;28;20131;-80
2022/05/15 02:40:06;;;;;;;23.98;5.78;;;8.80;99.90;;;;;;5093753;28;20498;-80
2022/05/15 02:42:31;;;;;;;19.98;4.90;;;8.80;99.90;;;;;;5096701;28;20040;-80
2022/05/15 02:44:57;;;;;;;20.27;6.10;;;8.70;99.90;;;;;;5097892;28;20578;-79
2022/05/15 02:47:24;;;;;;;20.58;4.90;;;8.70;99.90;;;;;;5098015;28;20084;-80
2022/05/15 02:52:33;;;;;;;26.27;5.57;;;8.70;99.90;;;;;;5097564;28;20086;-79
2022/05/15 02:54:59;;;;;;;19.90;4.82;;;8.70;99.90;;;;;;5080628;28;20075;-79
2022/05/15 02:57:25;;;;;;;23.10;5.50;;;8.70;99.90;;;;;;5097580;28;20481;-79
2022/05/15 02:59:50;;;;;;;24.10;5.82;;;8.70;99.90;;;;;;5097537;28;20043;-80
2022/05/15 03:02:16;;;;;;;13.38;3.85;;;8.70;99.90;;;;;;5100780;28;20490;-80
2022/05/15 03:04:41;;;;;;;23.33;4.50;;;8.70;99.90;;;;;;5085588;28;20122;-79
2022/05/15 03:07:07;;;;;;;20.35;5.53;;;8.70;99.90;;;;;;5099707;28;20036;-79
2022/05/15 03:09:34;;;;;;;26.60;5.40;;;8.70;99.90;;;;;;5100300;28;20074;-79
2022/05/15 03:12:00;;;;;;;14.65;4.97;;;8.70;99.90;;;;;;5101745;28;20039;-79
2022/05/15 03:14:25;;;;;;;18.08;5.18;;;8.70;99.90;;;;;;5101480;28;20034;-79
2022/05/15 03:16:51;;;;;;;22.45;4.68;;;8.70;99.90;;;;;;5101170;28;20511;-79
2022/05/15 03:19:17;;;;;;;20.73;4.82;;;8.60;99.90;;;;;;5101052;28;20050;-80
2022/05/15 03:21:43;;;;;;;19.63;5.40;;;8.60;99.90;;;;;;5084151;28;20057;-80
2022/05/15 03:24:11;;;;;;;21.67;6.30;;;8.70;99.90;;;;;;5101999;28;20055;-80
2022/05/15 03:26:44;;;;;;;18.48;5.03;;;8.70;99.90;;;;;;5085043;28;20118;-79
2022/05/15 03:29:11;;;;;;;20.83;5.13;;;8.70;99.90;;;;;;5083561;28;20210;-79
2022/05/15 03:31:39;;;;;;;19.05;6.10;;;8.70;99.90;;;;;;5084275;28;20040;-80
2022/05/15 03:34:06;;;;;;;22.35;6.03;;;8.70;99.90;;;;;;5098850;28;20043;-79
2022/05/15 03:36:32;;;;;;;16.27;4.88;;;8.60;99.90;;;;;;5102115;28;20131;-79
2022/05/15 03:38:59;;;;;;;21.50;5.88;;;8.60;99.90;;;;;;5101373;28;20043;-79
2022/05/15 03:41:24;;;;;;;26.02;5.93;;;8.60;99.90;;;;;;5101467;28;20040;-79
2022/05/15 03:43:50;;;;;;;23.75;6.38;;;8.60;99.90;;;;;;5101292;28;20070;-79
2022/05/15 03:46:15;;;;;;;15.02;5.03;;;8.60;99.90;;;;;;5108112;28;20039;-79
2022/05/15 03:48:41;;;;;;;13.68;4.82;;;8.60;99.90;;;;;;5120093;28;20043;-80
2022/05/15 03:51:06;;;;;;;19.45;6.22;;;8.60;99.90;;;;;;5110757;28;20039;-80
2022/05/15 03:53:32;;;;;;;20.42;7.13;;;8.60;99.90;;;;;;5095521;28;20078;-80
2022/05/15 03:55:59;;;;;;;20.42;6.03;;;8.60;99.90;;;;;;5095934;28;20477;-80
2022/05/15 03:58:27;;;;;;;17.33;4.80;;;8.60;99.90;;;;;;5096521;28;20040;-80
2022/05/15 04:00:52;;;;;;;18.70;5.53;;;8.60;99.90;;;;;;5079073;28;20511;-80
2022/05/15 04:03:18;;;;;;;17.52;6.38;;;8.60;99.90;;;;;;5095839;28;20138;-80
2022/05/15 04:05:44;;;;;;;20.77;5.55;;;8.60;99.90;;;;;;5078203;28;20039;-80
2022/05/15 04:08:10;;;;;;;18.73;5.82;;;8.60;99.90;;;;;;5095034;28;20074;-80
2022/05/15 04:10:37;;;;;;;26.63;6.05;;;8.70;99.90;;;;;;5095241;28;20071;-80
2022/05/15 04:13:04;;;;;;;17.65;5.10;;;8.70;99.90;;;;;;5095575;28;20066;-80
2022/05/15 04:15:30;;;;;;;30.58;6.55;;;8.70;99.90;;;;;;5095591;28;20058;-80
2022/05/15 04:17:56;;;;;;;16.08;4.78;;;8.70;99.90;;;;;;5078883;28;20486;-80
2022/05/15 04:20:25;;;;;;;15.60;5.53;;;8.70;99.90;;;;;;5095975;28;20068;-80
2022/05/15 04:22:51;;;;;;;13.65;5.10;;;8.80;99.90;;;;;;5078975;28;20040;-80
2022/05/15 04:25:17;;;;;;;19.60;5.38;;;8.80;99.90;;;;;;5096206;28;20442;-81
2022/05/15 04:27:43;;;;;;;22.25;5.00;;;8.80;99.90;;;;;;5079183;28;20046;-81
2022/05/15 04:30:11;;;;;;;20.58;5.15;;;8.90;99.90;;;;;;5078982;28;20039;-81
2022/05/15 04:32:37;;;;;;;18.88;4.82;;;8.90;99.90;;;;;;5096169;28;20039;-80
2022/05/15 04:35:04;;;;;;;19.60;5.55;;;8.90;99.90;;;;;;5079556;28;20039;-81
2022/05/15 04:37:29;;;;;;;18.75;5.47;;;9.00;99.90;;;;;;5098679;28;20069;-80
2022/05/15 04:39:55;;;;;;;19.70;5.05;;;9.10;99.90;;;;;;5085080;28;20043;-80
2022/05/15 04:42:20;;;;;;;16.25;4.82;;;9.10;99.90;;;;;;5102722;28;20043;-79
2022/05/15 04:44:46;;;;;;;19.75;5.20;;;9.20;99.90;;;;;;5103561;28;20104;-79
2022/05/15 04:47:13;;;;;;;20.45;5.70;;;9.30;99.90;;;;;;5103521;28;20494;-79
2022/05/15 04:49:38;;;;;;;20.35;5.95;;;9.30;99.90;;;;;;5103090;28;20040;-79
2022/05/15 04:52:04;;;;;;;23.00;6.68;;;9.40;99.90;;;;;;5104931;28;20039;-80
2022/05/15 04:54:30;;;;;;;22.33;6.05;;;9.60;99.90;;;;;;5102739;28;20035;-80
2022/05/15 04:56:55;;;;;;;23.73;5.68;;;9.70;99.90;;;;;;5104482;28;20093;-80
2022/05/15 04:59:21;;;;;;;23.33;5.75;;;9.80;99.90;;;;;;5107816;28;20094;-81
2022/05/15 05:01:46;;;;;;;19.02;4.85;;;9.90;99.90;;;;;;5094109;28;20036;-82
2022/05/15 05:04:12;;;;;;;19.42;4.55;;;10.20;99.90;;;;;;5113757;28;20055;-82
2022/05/15 05:06:37;;;;;;;12.32;4.50;;;10.60;99.90;;;;;;5112343;28;20055;-81
2022/05/15 05:09:03;;;;;;;18.83;5.18;;;11.00;99.90;;;;;;5112851;28;20138;-82
2022/05/15 05:11:28;;;;;;;22.38;5.30;;;11.30;99.90;;;;;;5111991;28;20047;-81
2022/05/15 05:13:55;;;;;;;18.33;5.13;;;11.60;99.90;;;;;;5096716;28;20098;-83
2022/05/15 05:16:20;;;;;;;25.92;5.43;;;12.00;99.90;;;;;;5095276;28;20054;-81
2022/05/15 05:18:47;;;;;;;13.95;4.78;;;12.40;99.90;;;;;;5095132;28;20040;-83
2022/05/15 05:21:13;;;;;;;16.77;5.03;;;12.70;99.90;;;;;;5093276;28;20032;-82
2022/05/15 05:23:38;;;;;;;21.10;4.70;;;12.90;99.90;;;;;;5093114;28;20050;-83
2022/05/15 05:26:04;;;;;;;18.20;4.65;;;13.20;99.90;;;;;;5111059;28;20044;-81
2022/05/15 05:28:31;;;;;;;14.93;4.75;;;13.40;99.90;;;;;;5112405;28;20022;-82
2022/05/15 05:30:57;;;;;;;21.33;3.88;;;13.60;99.90;;;;;;5093690;28;20039;-82
2022/05/15 05:33:23;;;;;;;13.95;4.22;;;13.80;99.90;;;;;;5112249;28;20040;-82
2022/05/15 05:35:50;;;;;;;22.05;4.80;;;14.00;99.90;;;;;;5107994;28;20097;-82
2022/05/15 05:38:16;;;;;;;15.90;4.40;;;14.20;99.90;;;;;;5109523;28;20040;-81
2022/05/15 05:40:42;;;;;;;15.00;4.97;;;14.50;99.90;;;;;;5106077;28;20044;-82
2022/05/15 05:43:08;;;;;;;19.02;5.25;;;14.70;99.90;;;;;;5111089;28;20104;-82
2022/05/15 05:45:34;;;;;;;21.92;5.53;;;15.10;99.90;;;;;;5112111;28;20043;-82
2022/05/15 05:48:00;;;;;;;20.25;4.32;;;15.20;99.90;;;;;;5111510;28;20064;-82
2022/05/15 05:50:27;;;;;;;19.00;5.20;;;15.50;99.90;;;;;;5112998;28;20063;-82
2022/05/15 05:52:54;;;;;;;14.27;4.18;;;15.70;99.90;;;;;;5096336;28;20103;-82
2022/05/15 05:55:20;;;;;;;23.83;5.00;;;15.70;99.90;;;;;;5094097;28;20039;-82
2022/05/15 05:57:47;;;;;;;14.52;4.60;;;15.90;99.90;;;;;;5108132;28;20040;-82
2022/05/15 06:00:17;;;;;;;16.73;5.20;;;16.10;99.90;;;;;;5095182;28;20050;-82
2022/05/15 06:02:43;;;;;;;21.80;5.25;;;16.30;99.90;;;;;;5110982;28;20055;-82
2022/05/15 06:05:09;;;;;;;16.35;4.35;;;16.50;99.90;;;;;;5091789;28;20047;-82
2022/05/15 06:07:35;;;;;;;20.40;5.05;;;16.70;99.90;;;;;;5113308;28;20044;-81
2022/05/15 06:10:01;;;;;;;16.05;4.88;;;16.80;99.90;;;;;;5112445;28;20043;-82
2022/05/15 06:12:26;;;;;;;18.45;4.90;;;16.70;99.90;;;;;;5092879;28;20054;-79
2022/05/15 06:14:52;;;;;;;14.95;4.00;;;16.70;99.90;;;;;;5106282;28;20047;-79
2022/05/15 06:17:24;;;;;;;12.23;3.95;;;17.00;99.90;;;;;;5085030;28;20043;-79
2022/05/15 06:19:50;;;;;;;;;;;17.30;99.90;;;;;;5104080;28;20425;-79
2022/05/15 06:22:16;;;;;;;18.85;4.47;;;17.50;99.90;;;;;;5107058;28;19930;-81
2022/05/15 06:24:42;;;;;;;14.05;3.85;;;17.70;99.90;;;;;;5091095;28;20043;-80
2022/05/15 06:27:09;;;;;;;17.73;4.00;;;18.10;99.90;;;;;;5100059;28;20035;-79
2022/05/15 06:29:37;;;;;;;15.20;4.53;;;18.40;99.90;;;;;;5115762;28;20040;-79
2022/05/15 06:32:03;;;;;;;14.85;4.07;;;18.80;99.90;;;;;;5097618;28;20047;-80
2022/05/15 06:34:28;;;;;;;10.85;3.60;;;19.20;99.90;;;;;;5097784;28;20039;-80
2022/05/15 06:36:54;;;;;;;9.40;3.35;;;19.40;99.90;;;;;;5082386;28;20097;-80
2022/05/15 06:39:19;;;;;;;12.10;4.15;;;19.70;99.90;;;;;;5083432;28;20108;-80
2022/05/15 06:41:49;;;;;;;17.27;4.32;;;19.90;99.90;;;;;;5097700;28;20123;-80
2022/05/15 06:44:16;;;;;;;18.50;4.70;;;20.30;99.90;;;;;;5100690;28;20046;-80
2022/05/15 06:46:41;;;;;;;13.73;3.58;;;20.30;99.90;;;;;;5100780;28;20070;-80
2022/05/15 06:49:07;;;;;;;14.10;4.50;;;20.10;99.90;;;;;;5086643;28;20047;-80
2022/05/15 06:51:33;;;;;;;11.80;4.25;;;20.10;99.90;;;;;;5089967;28;20057;-80
2022/05/15 06:53:58;;;;;;;13.35;4.32;;;20.30;99.90;;;;;;5123948;28;20106;-80
2022/05/15 06:59:08;;;;;;;11.93;3.97;;;20.70;99.90;;;;;;5117558;28;20083;-81
2022/05/15 07:01:33;;;;;;;13.15;3.58;;;21.00;99.90;;;;;;5115712;28;20067;-81
2022/05/15 07:03:59;;;;;;;9.95;3.72;;;21.00;99.90;;;;;;5081608;28;20497;-82
2022/05/15 07:06:24;;;;;;;12.80;3.45;;;20.90;99.90;;;;;;5092983;28;20398;-80
2022/05/15 07:08:50;;;;;;;11.52;3.22;;;20.80;99.90;;;;;;5112812;28;20169;-81
2022/05/15 07:11:16;;;;;;;12.57;2.97;;;20.90;99.90;;;;;;5092980;28;20043;-81
2022/05/15 07:13:42;;;;;;;11.50;3.30;;;21.10;99.90;;;;;;5096867;28;20120;-82
2022/05/15 07:16:08;;;;;;;12.88;3.45;;;21.40;99.90;;;;;;5076481;28;20497;-81
2022/05/15 07:18:35;;;;;;;12.00;3.42;;;21.50;99.90;;;;;;5093374;28;20406;-82
2022/05/15 07:21:01;;;;;;;10.02;2.67;;;21.60;99.90;;;;;;5093644;28;20079;-82
2022/05/15 07:23:27;;;;;;;13.82;3.15;;;21.50;98.40;;;;;;5094459;28;20050;-81
2022/05/15 07:25:54;;;;;;;8.93;3.08;;;21.60;97.80;;;;;;5094297;28;20399;-81
2022/05/15 07:28:20;;;;;;;11.95;2.92;;;21.70;97.00;;;;;;5078631;28;20401;-82
2022/05/15 07:30:46;;;;;;;9.77;2.90;;;21.80;97.40;;;;;;5099692;28;20092;-81
2022/05/15 07:33:12;;;;;;;10.45;2.72;;;22.00;96.70;;;;;;5082660;28;20424;-82
2022/05/15 07:35:37;;;;;;;12.52;3.03;;;22.40;94.90;;;;;;5098580;28;20074;-81
2022/05/15 07:38:03;;;;;;;14.93;3.67;;;22.60;93.90;;;;;;5098803;28;20391;-81
2022/05/15 07:40:28;;;;;;;11.55;2.70;;;22.80;93.30;;;;;;5098041;28;20066;-80
2022/05/15 07:42:54;;;;;;;15.25;3.58;;;23.10;91.90;;;;;;5080812;28;20043;-82
2022/05/15 07:45:20;;;;;;;9.50;2.40;;;22.90;90.80;;;;;;5097548;28;20118;-82
2022/05/15 07:47:45;;;;;;;10.55;2.70;;;22.80;91.30;;;;;;5098940;28;20561;-81
2022/05/15 07:50:12;;;;;;;11.40;3.03;;;22.90;90.30;;;;;;5082647;28;20478;-80
2022/05/15 07:52:38;;;;;;;10.77;3.05;;;23.10;89.10;;;;;;5099829;28;20047;-80
2022/05/15 07:55:07;;;;;;;9.60;2.85;;;22.80;86.00;;;;;;5099716;28;20039;-81
2022/05/15 07:57:34;;;;;;;10.00;3.17;;;22.40;84.50;;;;;;5099336;28;20043;-82
2022/05/15 08:00:01;;;;;;;13.70;3.00;;;22.20;87.70;;;;;;5098341;28;20448;-82
2022/05/15 08:02:26;;;;;;;8.77;3.03;;;22.20;86.00;;;;;;5082707;28;20079;-82
2022/05/15 08:10:20;;;;;;;10.00;2.97;;;22.40;83.50;;;;;;5102619;28;20067;-81
2022/05/15 08:12:45;;;;;;;12.75;3.03;;;22.70;82.10;;;;;;5083613;28;20567;-81
2022/05/15 08:15:11;;;;;;;15.00;3.20;;;23.10;81.00;;;;;;5119483;28;20099;-81
2022/05/15 08:17:37;;;;;;;9.68;2.53;;;23.40;79.20;;;;;;5085984;28;20050;-82
2022/05/15 08:23:33;;;;;;;13.95;3.50;;;23.30;76.30;;;;;;5099164;28;20148;-82
2022/05/15 08:25:44;;;;;;;10.05;2.63;;;23.30;78.60;;;;;;5100111;28;20082;-82
2022/05/15 08:28:10;;;;;;;13.15;2.92;;;23.50;75.30;;;;;;5102164;28;20530;-81
2022/05/15 08:30:35;;;;;;;11.65;3.47;;;23.70;73.30;;;;;;5098874;28;20128;-83
2022/05/15 08:33:01;;;;;;;12.30;3.38;;;23.50;72.90;;;;;;5082473;28;20043;-82
2022/05/15 08:35:29;;;;;;;12.02;3.13;;;23.60;73.00;;;;;;5102442;28;20140;-82
2022/05/15 08:37:55;;;;;;;16.05;3.70;;;23.80;74.10;;;;;;5084242;28;20058;-81
2022/05/15 08:40:25;;;;;;;11.07;3.15;;;24.00;71.60;;;;;;5100158;28;20035;-82
2022/05/15 08:42:56;;;;;;;18.05;3.60;;;24.10;71.90;;;;;;5083506;28;20509;-81
2022/05/15 08:45:33;;;;;;;13.13;3.13;;;24.20;70.30;;;;;;5099499;28;20035;-82
2022/05/15 08:48:12;;;;;;;9.40;3.15;;;24.40;66.40;;;;;;5098583;28;20040;-82
2022/05/15 08:50:50;;;;;;;19.20;3.65;;;24.50;67.70;;;;;;5097112;28;20613;-81
2022/05/15 08:53:32;;;;;;;13.25;3.45;;;24.80;66.10;;;;;;5098678;28;20039;-81
2022/05/15 08:56:00;;;;;;;13.82;3.00;;;24.90;63.40;;;;;;5098081;28;20044;-80
2022/05/15 08:58:51;;;;;;;16.88;3.55;;;24.90;67.60;;;;;;5100539;28;20440;-79
2022/05/15 09:01:24;;;;;;;14.25;3.05;;;24.70;63.10;;;;;;5098637;28;20047;-79
2022/05/15 09:03:51;;;;;;;18.85;3.97;;;24.40;63.60;;;;;;5099884;28;20054;-82
2022/05/15 09:06:22;;;;;;;9.85;2.92;;;24.20;65.30;;;;;;5102637;28;20441;-82
2022/05/15 09:09:16;;;;;;;13.70;3.40;;;24.30;63.10;;;;;;5101245;28;20508;-81
2022/05/15 09:11:55;;;;;;;13.88;2.75;;;24.20;60.90;;;;;;5084952;28;20043;-81
2022/05/15 09:14:50;;;;;;;10.68;3.20;;;24.00;63.40;;;;;;5100882;28;20131;-82
2022/05/15 09:17:53;;;;;;;15.25;3.80;;;24.00;61.20;;;;;;5085104;28;20046;-82
2022/05/15 09:20:51;;;;;;;13.13;2.78;;;24.10;66.00;;;;;;5083414;28;20048;-82
2022/05/15 09:23:16;;;;;;;14.65;3.45;;;24.30;63.90;;;;;;5045569;28;20130;-82
2022/05/15 09:25:49;;;;;;;13.23;3.25;;;24.60;64.90;;;;;;5086538;28;20085;-83
2022/05/15 09:28:15;;;;;;;16.23;3.90;;;24.70;64.60;;;;;;5087829;28;20571;-83
2022/05/15 09:30:46;;;;;;;11.70;3.72;;;24.80;63.40;;;;;;5100319;28;20047;-83
2022/05/15 09:33:46;;;;;;;13.98;3.60;;;24.80;61.00;;;;;;5082847;28;20041;-83
2022/05/15 09:36:35;;;;;;;13.82;3.10;;;24.90;61.60;;;;;;5065524;28;20143;-83
2022/05/15 09:39:22;;;;;;;13.20;3.17;;;25.00;58.90;;;;;;5083010;28;20063;-82
2022/05/15 09:44:48;;;;;;;11.35;3.20;;;24.70;59.10;;;;;;5122898;28;20559;-82
2022/05/15 09:47:28;;;;;;;14.20;3.95;;;24.70;60.30;;;;;;5084857;28;20044;-82
2022/05/15 09:49:54;;;;;;;12.10;2.90;;;24.80;61.70;;;;;;5105939;28;20048;-81
2022/05/15 09:52:22;;;;;;;19.02;3.33;;;25.00;61.80;;;;;;5125203;28;20039;-80
2022/05/15 09:54:50;;;;;;;13.85;3.88;;;25.20;60.70;;;;;;5105540;28;20039;-80
2022/05/15 09:57:28;;;;;;;10.75;3.50;;;25.40;60.00;;;;;;5107237;28;20137;-80
2022/05/15 10:00:03;;;;;;;7.22;2.78;;;25.30;57.40;;;;;;5106447;28;20050;-80
2022/05/15 10:02:49;;;;;;;12.45;3.47;;;25.30;57.90;;;;;;5108142;28;20103;-80
2022/05/15 10:05:14;;;;;;;17.73;3.42;;;25.40;57.70;;;;;;5106678;28;20062;-80
2022/05/15 10:07:45;;;;;;;11.63;3.10;;;25.30;57.50;;;;;;5110829;28;20048;-80
2022/05/15 10:10:12;;;;;;;14.57;3.78;;;25.40;57.50;;;;;;5109450;28;20032;-80
2022/05/15 10:12:39;;;;;;;17.90;3.22;;;25.40;57.80;;;;;;5092985;28;20118;-80
2022/05/15 10:15:06;;;;;;;16.83;3.30;;;25.40;56.60;;;;;;5108484;28;20130;-80
2022/05/15 10:17:33;;;;;;;10.95;3.47;;;25.40;55.20;;;;;;5094303;28;20137;-78
2022/05/15 10:20:04;;;;;;;12.30;3.63;;;25.40;55.00;;;;;;5114811;28;20055;-78
2022/05/15 10:22:57;;;;;;;20.07;3.37;;;25.20;56.10;;;;;;5096298;28;20059;-78
2022/05/15 10:25:37;;;;;;;15.73;3.38;;;25.10;54.00;;;;;;5094613;28;20367;-78
2022/05/15 10:28:26;;;;;;;11.25;3.55;;;24.80;55.50;;;;;;5094339;28;20110;-78
2022/05/15 10:31:08;;;;;;;13.35;3.80;;;24.90;56.70;;;;;;5093326;28;20054;-78
2022/05/15 10:33:37;;;;;;;11.82;3.08;;;25.00;56.90;;;;;;5094468;28;20078;-79
2022/05/15 10:36:03;;;;;;;12.35;3.10;;;25.00;55.40;;;;;;5077769;28;20055;-78
2022/05/15 10:38:43;;;;;;;14.30;2.88;;;25.10;54.60;;;;;;5116978;28;20134;-78
2022/05/15 10:41:19;;;;;;;18.23;3.17;;;25.00;52.70;;;;;;5116601;28;20407;-78
2022/05/15 10:44:22;;;;;;;10.20;3.03;;;24.90;55.30;;;;;;5105492;28;20086;-77
2022/05/15 10:46:50;;;;;;;12.70;3.30;;;24.90;54.90;;;;;;5111627;28;20063;-78
2022/05/15 10:49:34;;;;;;;13.25;3.03;;;25.10;54.00;;;;;;5092981;28;20120;-78
2022/05/15 10:52:29;;;;;;;13.00;3.53;;;25.20;54.70;;;;;;5093203;28;20040;-79
2022/05/15 10:58:07;;;;;;;13.45;2.67;;;25.10;54.60;;;;;;5094811;28;20079;-80
2022/05/15 11:00:43;;;;;;;12.05;3.40;;;25.00;53.80;;;;;;5075911;28;20083;-80
2022/05/15 11:03:33;;;;;;;10.40;3.38;;;25.00;52.80;;;;;;5094821;28;20048;-80
2022/05/15 11:06:40;;;;;;;11.85;2.88;;;25.10;53.10;;;;;;5080882;28;20122;-80
2022/05/15 11:09:24;;;;;;;15.48;3.50;;;25.30;54.60;;;;;;5096860;28;20036;-81
2022/05/15 11:11:59;;;;;;;14.52;3.47;;;25.50;53.30;;;;;;5097384;28;20040;-80
2022/05/15 11:14:29;;;;;;;11.27;4.50;;;25.60;52.30;;;;;;5097016;28;20785;-80
2022/05/15 11:17:10;;;;;;;12.25;3.00;;;25.70;52.00;;;;;;5115257;28;20078;-80
2022/05/15 11:19:41;;;;;;;9.90;3.10;;;25.60;52.10;;;;;;5098751;28;20035;-80
2022/05/15 11:22:21;;;;;;;18.38;3.90;;;25.50;51.30;;;;;;5101744;28;20285;-79
2022/05/15 11:25:09;;;;;;;12.82;3.50;;;25.50;52.10;;;;;;5102402;28;20048;-79
2022/05/15 11:27:49;;;;;;;13.55;3.25;;;25.40;51.10;;;;;;5107353;28;20047;-78
2022/05/15 11:30:19;;;;;;;9.38;2.88;;;25.30;52.10;;;;;;5103218;28;20098;-80
2022/05/15 11:32:45;;;;;;;10.13;3.03;;;25.20;52.90;;;;;;5087295;28;20039;-80
2022/05/15 11:35:16;;;;;;;15.70;3.50;;;25.10;52.50;;;;;;5104018;28;20047;-80
2022/05/15 11:38:04;;;;;;;11.48;3.08;;;25.10;54.20;;;;;;5106476;28;20079;-80
2022/05/15 11:40:35;;;;;;;12.15;3.20;;;25.20;54.00;;;;;;5107513;28;20115;-80
2022/05/15 11:43:26;;;;;;;9.70;2.47;;;25.40;52.90;;;;;;5106249;28;20123;-80
2022/05/15 11:45:59;;;;;;;12.35;2.80;;;25.70;51.40;;;;;;5102930;28;20044;-79
2022/05/15 11:48:30;;;;;;;11.30;3.80;;;25.60;49.40;;;;;;5104621;28;20446;-79
2022/05/15 11:51:14;;;;;;;14.02;3.47;;;25.40;50.80;;;;;;5106012;28;20089;-80
2022/05/15 11:53:52;;;;;;;11.75;3.10;;;25.20;51.80;;;;;;5109834;28;20044;-81
2022/05/15 11:56:41;;;;;;;10.70;3.22;;;25.10;49.90;;;;;;5108908;28;20054;-80
2022/05/15 11:59:17;;;;;;;11.35;3.08;;;25.00;51.10;;;;;;5106987;28;20065;-80
2022/05/15 12:01:47;;;;;;;16.08;3.78;;;25.00;52.00;;;;;;5106755;28;20099;-81
2022/05/15 12:04:34;;;;;;;8.93;3.00;;;25.10;52.30;;;;;;5110482;28;20086;-80
2022/05/15 12:07:00;;;;;;;9.95;3.00;;;25.20;52.10;;;;;;5108812;28;20035;-81
2022/05/15 12:09:49;;;;;;;8.90;3.15;;;25.30;51.50;;;;;;5109219;28;20042;-80
2022/05/15 12:12:22;;;;;;;10.75;2.95;;;25.40;51.80;;;;;;5089589;28;20043;-79
2022/05/15 12:15:09;;;;;;;12.73;2.80;;;25.60;52.30;;;;;;5088807;28;20126;-81
2022/05/15 12:17:38;;;;;;;10.55;2.78;;;25.60;50.80;;;;;;5108425;28;20073;-80
2022/05/15 12:20:15;;;;;;;10.50;2.70;;;25.60;52.60;;;;;;5107797;28;20074;-80
2022/05/15 12:23:03;;;;;;;15.55;2.95;;;25.70;51.50;;;;;;5108517;28;20047;-79
2022/05/15 12:25:52;;;;;;;14.68;2.97;;;25.80;50.20;;;;;;5105918;28;20054;-80
2022/05/15 12:31:19;;;;;;;15.55;2.83;;;26.20;49.60;;;;;;5109834;28;20050;-80
2022/05/15 12:33:45;;;;;;;10.13;2.92;;;26.20;50.00;;;;;;5109034;28;20095;-80
2022/05/15 12:36:19;;;;;;;10.52;3.10;;;26.20;50.20;;;;;;5090251;28;20044;-80
2022/05/15 12:38:54;;;;;;;11.25;3.15;;;26.20;50.00;;;;;;5105165;28;20108;-81
2022/05/15 12:41:38;;;;;;;10.38;2.42;;;26.20;49.60;;;;;;5100611;28;20075;-81
2022/05/15 12:44:10;;;;;;;11.50;3.40;;;26.30;48.80;;;;;;5096287;28;20083;-81
2022/05/15 12:46:37;;;;;;;;;;;26.50;49.30;;;;;;5097363;28;20494;-81
2022/05/15 12:49:04;;;;;;;14.35;3.20;;;26.40;49.20;;;;;;5129841;27;20062;-80
2022/05/15 12:51:38;;;;;;;13.35;2.80;;;26.30;49.10;;;;;;5096220;28;20089;-81
2022/05/15 12:54:21;;;;;;;7.22;2.70;;;26.40;48.60;;;;;;5079245;28;20035;-82
2022/05/15 12:56:58;;;;;;;9.13;2.42;;;26.50;50.50;;;;;;5096720;28;20375;-82
2022/05/15 12:59:26;;;;;;;8.35;2.63;;;26.60;48.40;;;;;;5097194;28;20055;-81
2022/05/15 13:01:52;;;;;;;10.05;3.00;;;26.50;48.80;;;;;;5097612;28;20110;-82
2022/05/15 13:04:21;;;;;;;9.48;2.58;;;26.60;48.80;;;;;;5098132;28;20079;-82
2022/05/15 13:06:55;;;;;;;10.57;3.00;;;26.50;48.30;;;;;;5098473;28;20509;-81
2022/05/15 13:09:23;;;;;;;14.32;3.28;;;26.30;48.50;;;;;;5080739;28;20366;-81
2022/05/15 13:11:54;;;;;;;10.27;2.72;;;26.00;48.00;;;;;;5097848;28;20405;-79
2022/05/15 13:14:34;;;;;;;16.17;3.47;;;25.70;48.20;;;;;;5115221;28;20050;-80
2022/05/15 13:17:00;;;;;;;14.02;2.90;;;25.60;48.80;;;;;;5099808;28;20047;-80
2022/05/15 13:19:37;;;;;;;9.80;2.42;;;25.70;49.70;;;;;;5097792;28;20486;-79